Home   Weather   Germany   Königs Wusterhausen   Past weeks
Flag for Germany

Past Weather in Königs Wusterhausen, Brandenburg, Germany — Yesterday and Last 2 Weeks

Currently: 39 °F. Clear. (Weather station: Berlin-Schoenefeld, Germany). See more current weather

Past Weather in Königs Wusterhausen — Graph

°F

Königs Wusterhausen Temperature Yesterday

Maximum temperature yesterday: 54 °F (at 2:50 am)
Minimum temperature yesterday: 39 °F (at 11:20 pm)
Average temperature yesterday: 46 °F

High & Low Weather Summary for the Past Weeks

 TemperatureHumidityPressure
High61 °F (Feb 16, 1:20 pm)100% (Feb 9, 10:50 pm)30.54 "Hg (Feb 9, 10:50 pm)
Low34 °F (Feb 13, 11:50 pm)54% (Feb 23, 11:50 am)29.09 "Hg (Feb 22, 10:20 pm)
Average47 °F84%29.82 "Hg
* Reported Feb 9 10:20 pm — Feb 24 10:20 pm, Königs Wusterhausen. Weather by CustomWeather, © 2024

Note: Actual official high and low records may vary slightly from our data, if they occured in-between our weather recording intervals... More about our weather records

Königs Wusterhausen Weather History for the Previous 24 Hours

Scroll right to see more
 ConditionsComfort  
Time TempWeatherWind HumidityBarometerVisibility
10:20 pm
Sat, Feb 24
41 °FClear.9 mph70%29.74 "Hg10 mi
9:50 pm39 °FClear.7 mph75%29.74 "Hg10 mi
9:20 pm41 °FClear.6 mph76%29.74 "Hg10 mi
8:50 pm39 °FClear.6 mph81%29.74 "Hg10 mi
8:20 pm39 °FPassing clouds.5 mph75%29.71 "HgN/A
7:50 pm43 °FClear.6 mph71%29.71 "Hg10 mi
7:20 pm45 °FClear.9 mph66%29.71 "Hg10 mi
6:50 pm45 °FClear.9 mph66%29.71 "Hg10 mi
6:20 pm45 °FClear.8 mph71%29.68 "Hg10 mi
5:50 pm46 °FClear.9 mph66%29.68 "Hg10 mi
5:20 pm48 °FSunny.10 mph62%29.65 "Hg10 mi
4:50 pm50 °FSunny.14 mph58%29.65 "Hg10 mi
4:20 pm50 °FSunny.12 mph58%29.65 "Hg10 mi
3:20 pm50 °FSunny.15 mph58%29.65 "Hg10 mi
2:50 pm50 °FPassing clouds.17 mph58%29.62 "HgN/A
2:20 pm52 °FSunny.17 mph54%29.62 "Hg10 mi
1:50 pm52 °FSunny.17 mph54%29.62 "Hg10 mi
1:20 pm52 °FSunny.15 mph54%29.62 "Hg10 mi
12:50 pm50 °FSunny.15 mph58%29.62 "Hg10 mi
12:20 pm50 °FPassing clouds.12 mph58%29.59 "HgN/A
11:50 am50 °FSunny.13 mph58%29.59 "Hg10 mi
11:20 am50 °FSunny.13 mph58%29.59 "Hg10 mi
10:50 am48 °FSunny.12 mph62%29.59 "Hg10 mi
10:20 am46 °FSunny.9 mph66%29.56 "Hg10 mi
9:50 am43 °FSunny.9 mph76%29.56 "Hg10 mi
9:20 am41 °FSunny.9 mph76%29.56 "Hg10 mi
8:50 am39 °FPassing clouds.3 mph81%29.56 "HgN/A
8:20 am36 °FSunny.2 mph87%29.56 "Hg10 mi
7:50 am36 °FSunny.7 mph87%29.53 "Hg10 mi
7:20 am34 °FPassing clouds.5 mph87%29.53 "HgN/A
6:50 am34 °FClear.5 mph87%29.53 "Hg10 mi
6:20 am34 °FClear.3 mph93%29.53 "Hg10 mi
5:50 am34 °FClear.2 mph87%29.50 "Hg10 mi
5:20 am34 °FClear.2 mph93%29.50 "Hg10 mi
4:50 am34 °FClear.6 mph87%29.50 "Hg10 mi
4:20 am36 °FClear.6 mph87%29.50 "Hg10 mi
3:50 am36 °FClear.1 mph87%29.50 "Hg10 mi
3:20 am34 °FClear.3 mph93%29.50 "Hg10 mi
2:50 am34 °FClear.3 mph87%29.50 "Hg10 mi
2:20 am36 °FClear.3 mph87%29.50 "Hg10 mi
1:50 am36 °FPassing clouds.3 mph87%29.50 "HgN/A
12:20 am37 °FClear.3 mph81%29.50 "Hg10 mi
11:50 pm
Fri, Feb 23
39 °FClear.7 mph75%29.50 "Hg10 mi
11:20 pm39 °FClear.9 mph75%29.53 "Hg10 mi
Weather by CustomWeather, © 2024

See weather overview